createdAt,value
2023-04-20T00:01:49.673Z,86.47
2023-04-20T00:04:18.338Z,86.36
2023-04-20T00:06:46.861Z,86.44
2023-04-20T00:09:16.486Z,86.44
2023-04-20T00:11:45.025Z,86.29
2023-04-20T00:14:15.039Z,85.86
2023-04-20T00:16:43.671Z,85.44
2023-04-20T00:19:15.060Z,85.14
2023-04-20T00:21:43.556Z,85.28
2023-04-20T00:24:11.989Z,85.44
2023-04-20T00:26:40.333Z,85.75
2023-04-20T00:29:11.536Z,85.68
2023-04-20T00:31:41.819Z,85.86
2023-04-20T00:34:12.299Z,86.05
2023-04-20T00:36:41.807Z,85.88
2023-04-20T00:39:10.637Z,85.97
2023-04-20T00:41:41.602Z,85.56
2023-04-20T00:44:11.965Z,85.86
2023-04-20T00:46:41.934Z,85.74
2023-04-20T00:49:11.007Z,85.94
2023-04-20T00:51:43.090Z,85.84
2023-04-20T00:54:11.868Z,86.31
2023-04-20T00:56:41.490Z,86.40
2023-04-20T00:59:09.889Z,86.33
2023-04-20T01:01:38.295Z,86.26
2023-04-20T01:04:12.327Z,86.20
2023-04-20T01:06:40.469Z,86.21
2023-04-20T01:09:10.272Z,86.10
2023-04-20T01:11:38.635Z,85.76
2023-04-20T01:14:08.224Z,85.66
2023-04-20T01:16:37.042Z,85.46
2023-04-20T01:19:07.140Z,85.73
2023-04-20T01:21:37.212Z,85.90
2023-04-20T01:24:07.872Z,86.08
2023-04-20T01:26:36.487Z,86.10
2023-04-20T01:29:06.168Z,86.30
2023-04-20T01:31:34.564Z,86.36
2023-04-20T01:34:02.815Z,86.27
2023-04-20T01:36:32.410Z,86.13
2023-04-20T01:39:01.941Z,86.25
2023-04-20T01:41:31.986Z,86.37
2023-04-20T01:44:01.286Z,86.41
2023-04-20T01:46:29.550Z,86.34
2023-04-20T01:48:57.902Z,86.26
2023-04-20T01:51:26.321Z,86.16
2023-04-20T01:53:56.419Z,86.15
2023-04-20T01:56:25.956Z,86.19
2023-04-20T01:58:57.199Z,86.16
2023-04-20T02:01:25.564Z,86.08
2023-04-20T02:03:54.857Z,85.94
2023-04-20T02:06:23.308Z,85.98
2023-04-20T02:08:51.588Z,85.68
2023-04-20T02:11:26.444Z,85.67
2023-04-20T02:13:54.697Z,85.87
2023-04-20T02:16:25.052Z,86.43
2023-04-20T02:18:54.784Z,86.57
2023-04-20T02:21:23.423Z,86.81
2023-04-20T02:23:52.033Z,86.37
2023-04-20T02:26:21.032Z,86.59
2023-04-20T02:28:49.214Z,86.74
2023-04-20T02:31:17.588Z,86.27
2023-04-20T02:33:50.057Z,86.61
2023-04-20T02:36:18.468Z,87.09
2023-04-20T02:38:46.728Z,87.52
2023-04-20T02:41:20.239Z,87.45
2023-04-20T02:43:48.903Z,87.54
2023-04-20T02:46:17.309Z,87.81
2023-04-20T02:48:45.845Z,87.79
2023-04-20T02:51:15.768Z,87.60
2023-04-20T02:53:46.814Z,87.08
2023-04-20T02:56:39.692Z,86.86
2023-04-20T02:59:11.181Z,86.73
2023-04-20T03:01:54.182Z,87.38
2023-04-20T03:04:26.149Z,87.63
2023-04-20T03:07:28.911Z,87.99
2023-04-20T03:09:57.603Z,87.79
2023-04-20T03:12:27.423Z,87.79
2023-04-20T03:15:06.414Z,87.88
2023-04-20T03:17:54.236Z,88.12
2023-04-20T03:20:23.655Z,88.31
2023-04-20T03:22:53.367Z,88.41
2023-04-20T03:25:25.258Z,88.55
2023-04-20T03:27:57.967Z,88.63
2023-04-20T03:30:26.882Z,88.55
2023-04-20T03:33:05.840Z,88.31
2023-04-20T03:35:35.507Z,88.04
2023-04-20T03:38:07.615Z,87.52
2023-04-20T03:40:37.947Z,87.13
2023-04-20T03:43:19.338Z,86.69
2023-04-20T03:45:49.679Z,86.11
2023-04-20T03:48:23.235Z,86.86
2023-04-20T03:50:52.818Z,87.14
2023-04-20T03:53:24.201Z,87.08
2023-04-20T03:55:53.564Z,87.60
2023-04-20T03:58:23.831Z,87.90
2023-04-20T04:01:29.965Z,88.04
2023-04-20T04:03:59.889Z,88.20
2023-04-20T04:06:29.502Z,88.43
2023-04-20T04:09:01.349Z,89.00
2023-04-20T04:11:37.141Z,89.47
2023-04-20T04:14:09.684Z,89.87
2023-04-20T04:16:39.197Z,90.10
2023-04-20T04:19:09.618Z,90.46
2023-04-20T04:22:09.583Z,90.51
2023-04-20T04:24:48.934Z,90.39
2023-04-20T04:31:23.891Z,90.20
2023-04-20T04:33:53.045Z,89.87
2023-04-20T04:36:44.275Z,89.60
2023-04-20T04:39:15.684Z,89.49
2023-04-20T04:41:55.780Z,89.47
2023-04-20T04:44:56.201Z,89.74
2023-04-20T04:47:36.499Z,89.99
2023-04-20T04:50:09.477Z,89.95
2023-04-20T04:52:42.740Z,89.72
2023-04-20T04:55:40.019Z,89.73
2023-04-20T04:58:11.882Z,89.56
2023-04-20T05:00:41.511Z,89.57
2023-04-20T05:03:10.983Z,89.86
2023-04-20T05:05:40.212Z,89.29
2023-04-20T05:08:12.416Z,89.03
2023-04-20T05:10:40.870Z,89.02
2023-04-20T05:13:11.865Z,89.04
2023-04-20T05:15:47.329Z,88.84
2023-04-20T05:18:16.922Z,88.51
2023-04-20T05:20:46.139Z,87.91
2023-04-20T05:23:20.705Z,87.39
2023-04-20T05:25:53.092Z,87.51
2023-04-20T05:28:24.216Z,86.87
2023-04-20T05:31:20.658Z,86.64
2023-04-20T05:33:49.145Z,86.30
2023-04-20T05:36:22.322Z,86.20
2023-04-20T05:38:54.000Z,85.82
2023-04-20T05:41:27.504Z,85.89
2023-04-20T05:43:59.307Z,86.17
2023-04-20T05:46:36.270Z,85.73
2023-04-20T05:49:54.354Z,86.81
2023-04-20T05:52:22.928Z,86.39
2023-04-20T05:54:52.297Z,86.59
2023-04-20T05:57:27.859Z,86.06
2023-04-20T05:59:57.683Z,85.19
2023-04-20T06:02:44.193Z,84.75
2023-04-20T06:05:13.764Z,84.17
2023-04-20T06:07:43.257Z,83.92
2023-04-20T06:10:13.748Z,84.00
2023-04-20T06:13:01.178Z,83.66
2023-04-20T06:15:33.150Z,82.41
2023-04-20T06:18:05.335Z,83.02
2023-04-20T06:20:36.946Z,83.38
2023-04-20T06:23:07.400Z,83.41
2023-04-20T06:25:38.104Z,83.26
2023-04-20T06:28:32.018Z,83.04
2023-04-20T06:31:05.007Z,82.19
2023-04-20T06:33:39.024Z,82.27
2023-04-20T06:36:09.112Z,82.03
2023-04-20T06:38:38.589Z,80.83
2023-04-20T06:41:08.889Z,80.24
2023-04-20T06:43:38.766Z,79.24
2023-04-20T06:46:09.464Z,80.22
2023-04-20T06:48:40.229Z,79.59
2023-04-20T06:51:14.355Z,80.74
2023-04-20T06:53:47.913Z,78.03
2023-04-20T06:56:17.253Z,76.32
2023-04-20T06:58:47.521Z,77.34
2023-04-20T07:01:17.570Z,76.28
2023-04-20T07:03:47.681Z,72.88
2023-04-20T07:06:17.276Z,73.70
2023-04-20T07:09:06.125Z,70.84
2023-04-20T07:11:35.772Z,68.76
2023-04-20T07:14:05.476Z,68.58
2023-04-20T07:16:35.178Z,69.13
2023-04-20T07:19:05.235Z,69.02
2023-04-20T07:21:34.249Z,67.84
2023-04-20T07:24:03.931Z,68.76
2023-04-20T07:26:32.358Z,68.28
2023-04-20T07:29:02.872Z,65.48
2023-04-20T07:31:32.910Z,68.16
2023-04-20T07:34:05.831Z,64.45
2023-04-20T07:36:35.294Z,66.16
2023-04-20T07:39:05.807Z,62.68
2023-04-20T07:41:35.643Z,64.12
2023-04-20T07:44:31.940Z,64.78
2023-04-20T07:47:19.902Z,62.00
2023-04-20T07:49:51.027Z,62.78
2023-04-20T07:52:19.991Z,61.59
2023-04-20T07:54:53.972Z,61.84
2023-04-20T07:57:23.508Z,61.57
2023-04-20T07:59:55.857Z,61.50
2023-04-20T08:02:29.688Z,64.40
2023-04-20T08:05:06.192Z,63.02
2023-04-20T08:07:42.788Z,61.51
2023-04-20T08:10:12.679Z,61.48
2023-04-20T08:12:45.619Z,61.48
2023-04-20T08:15:15.051Z,63.27
2023-04-20T08:17:43.761Z,61.76
2023-04-20T08:20:24.380Z,60.41
2023-04-20T08:22:53.435Z,62.38
2023-04-20T08:25:23.790Z,58.81
2023-04-20T08:27:58.240Z,57.89
2023-04-20T08:30:29.011Z,57.74
2023-04-20T08:32:58.696Z,59.30
2023-04-20T08:35:29.474Z,59.41
2023-04-20T08:37:58.874Z,58.57
2023-04-20T08:40:28.515Z,58.75
2023-04-20T08:42:59.813Z,57.10
2023-04-20T08:45:28.486Z,59.35
2023-04-20T08:48:05.570Z,60.23
2023-04-20T08:50:38.424Z,57.13
2023-04-20T08:53:07.281Z,58.40
2023-04-20T08:55:35.677Z,58.62
2023-04-20T08:58:04.048Z,58.14
2023-04-20T09:00:33.412Z,56.85
2023-04-20T09:03:02.427Z,55.69
2023-04-20T09:05:33.474Z,55.96
2023-04-20T09:08:07.119Z,53.61
2023-04-20T09:10:44.812Z,56.73
2023-04-20T09:13:25.028Z,56.73
2023-04-20T09:15:53.655Z,55.33
2023-04-20T09:18:25.946Z,55.19
2023-04-20T09:20:57.884Z,53.95
2023-04-20T09:23:30.723Z,55.74
2023-04-20T09:26:04.038Z,54.25
2023-04-20T09:28:39.935Z,53.62
2023-04-20T09:31:38.152Z,53.28
2023-04-20T09:34:09.024Z,53.17
2023-04-20T09:36:38.703Z,53.65
2023-04-20T09:39:11.938Z,52.73
2023-04-20T09:41:43.738Z,52.44
2023-04-20T09:44:18.106Z,49.59
2023-04-20T09:47:17.677Z,49.95
2023-04-20T09:49:50.105Z,48.86
2023-04-20T09:52:20.366Z,50.63
2023-04-20T09:54:53.402Z,52.58
2023-04-20T09:57:29.627Z,51.71
2023-04-20T10:00:27.603Z,47.34
2023-04-20T10:03:14.142Z,50.43
2023-04-20T10:05:43.781Z,48.26
2023-04-20T10:08:15.517Z,47.61
2023-04-20T10:10:49.567Z,47.37
2023-04-20T10:13:20.702Z,47.85
2023-04-20T10:15:50.569Z,47.87
2023-04-20T10:18:25.268Z,46.76
2023-04-20T10:21:09.759Z,47.69
2023-04-20T10:23:49.149Z,47.23
2023-04-20T10:26:19.965Z,49.17
2023-04-20T10:28:52.094Z,46.58
2023-04-20T10:31:22.251Z,47.26
2023-04-20T10:33:55.074Z,49.30
2023-04-20T10:36:28.707Z,48.38
2023-04-20T10:38:58.565Z,49.58
2023-04-20T10:41:32.526Z,51.05
2023-04-20T10:44:09.101Z,48.98
2023-04-20T10:46:37.876Z,48.38
2023-04-20T10:49:06.858Z,47.97
2023-04-20T10:51:37.472Z,47.74
2023-04-20T10:54:08.865Z,48.45
2023-04-20T10:56:40.976Z,49.84
2023-04-20T10:59:10.086Z,47.45
2023-04-20T11:01:39.803Z,47.60
2023-04-20T11:04:09.407Z,46.64
2023-04-20T11:06:39.700Z,47.85
2023-04-20T11:09:20.156Z,45.55
2023-04-20T11:12:02.265Z,49.01
2023-04-20T11:14:38.731Z,47.14
2023-04-20T11:17:08.120Z,49.28
2023-04-20T11:20:06.256Z,44.70
2023-04-20T11:22:36.251Z,45.10
2023-04-20T11:25:11.858Z,46.61
2023-04-20T11:27:43.297Z,44.91
2023-04-20T11:30:13.216Z,46.47
2023-04-20T11:33:02.467Z,46.06
2023-04-20T11:35:39.606Z,46.16
2023-04-20T11:45:39.280Z,46.72
2023-04-20T11:48:08.669Z,44.67
2023-04-20T11:50:38.604Z,43.58
2023-04-20T11:53:10.409Z,44.52
2023-04-20T11:55:47.948Z,44.34
2023-04-20T11:58:16.728Z,44.70
2023-04-20T12:00:47.432Z,45.40
2023-04-20T12:03:17.189Z,46.18
2023-04-20T12:05:59.765Z,47.00
2023-04-20T12:08:31.697Z,45.81
2023-04-20T12:11:01.120Z,46.04
2023-04-20T12:13:31.543Z,44.15
2023-04-20T12:16:02.370Z,45.61
2023-04-20T12:18:31.632Z,46.08
2023-04-20T12:21:56.133Z,47.00
2023-04-20T12:24:26.369Z,45.52
2023-04-20T12:26:54.770Z,47.27
2023-04-20T12:29:24.154Z,44.90
2023-04-20T12:32:09.776Z,45.37
2023-04-20T12:34:40.247Z,45.26
2023-04-20T12:37:18.160Z,48.64
2023-04-20T12:39:53.937Z,44.38
2023-04-20T12:42:23.372Z,44.83
2023-04-20T12:44:54.491Z,45.22
2023-04-20T12:47:44.217Z,46.13
2023-04-20T12:50:16.307Z,41.93
2023-04-20T12:52:56.249Z,42.25
2023-04-20T12:55:26.988Z,42.58
2023-04-20T12:57:56.965Z,44.82
2023-04-20T13:00:30.356Z,43.48
2023-04-20T13:03:57.616Z,41.53
2023-04-20T13:06:32.826Z,42.38
2023-04-20T13:09:06.301Z,42.58
2023-04-20T13:11:36.991Z,42.84
2023-04-20T13:14:07.817Z,44.07
2023-04-20T13:17:26.707Z,45.20
2023-04-20T13:19:56.277Z,44.35
2023-04-20T13:22:43.604Z,45.20
2023-04-20T13:25:45.485Z,42.54
2023-04-20T13:28:19.553Z,43.53
2023-04-20T13:30:49.255Z,48.18
2023-04-20T13:33:27.343Z,43.14
2023-04-20T13:35:58.920Z,42.88
2023-04-20T13:38:32.503Z,42.17
2023-04-20T13:41:01.934Z,42.70
2023-04-20T13:43:31.347Z,41.72
2023-04-20T13:46:00.985Z,40.48
2023-04-20T13:48:32.474Z,39.60
2023-04-20T13:51:04.784Z,39.60
2023-04-20T13:53:37.423Z,39.90
2023-04-20T13:56:09.597Z,43.28
2023-04-20T13:58:38.849Z,41.04
2023-04-20T14:01:10.123Z,43.72
2023-04-20T14:03:39.839Z,43.07
2023-04-20T14:06:08.356Z,44.55
2023-04-20T14:08:45.895Z,44.86
2023-04-20T14:11:17.498Z,43.41
2023-04-20T14:14:06.027Z,45.20
2023-04-20T14:16:34.525Z,43.96
2023-04-20T14:19:06.107Z,44.22
2023-04-20T14:21:35.591Z,44.23
2023-04-20T14:24:07.738Z,44.34
2023-04-20T14:26:37.354Z,43.87
2023-04-20T14:29:06.954Z,45.60
2023-04-20T14:31:41.321Z,43.88
2023-04-20T14:34:13.120Z,45.12
2023-04-20T14:36:41.492Z,43.14
2023-04-20T14:39:12.609Z,42.35
2023-04-20T14:41:41.016Z,41.23
2023-04-20T14:44:11.334Z,42.13
2023-04-20T14:46:42.610Z,40.25
2023-04-20T14:49:11.501Z,39.65
2023-04-20T14:51:40.044Z,40.01
2023-04-20T14:54:08.691Z,39.57
2023-04-20T14:56:38.366Z,40.22
2023-04-20T14:59:06.853Z,42.03
2023-04-20T15:01:36.043Z,41.08
2023-04-20T15:04:05.401Z,40.39
2023-04-20T15:06:35.776Z,40.60
2023-04-20T15:09:45.560Z,40.07
2023-04-20T15:12:19.117Z,39.76
2023-04-20T15:14:48.523Z,39.52
2023-04-20T15:17:16.809Z,40.35
2023-04-20T15:19:46.327Z,39.99
2023-04-20T15:22:24.560Z,39.92
2023-04-20T15:24:56.467Z,39.30
2023-04-20T15:27:35.216Z,40.29
2023-04-20T15:30:06.452Z,39.60
2023-04-20T15:32:41.770Z,41.87
2023-04-20T15:35:13.549Z,40.91
2023-04-20T15:37:43.294Z,41.40
2023-04-20T15:40:12.609Z,42.02
2023-04-20T15:42:43.379Z,41.27
2023-04-20T15:45:12.396Z,42.11
2023-04-20T15:47:41.842Z,42.19
2023-04-20T15:50:12.256Z,41.52
2023-04-20T15:52:43.224Z,40.99
2023-04-20T15:55:17.823Z,41.24
2023-04-20T15:57:47.819Z,41.83
2023-04-20T16:00:17.117Z,42.87
2023-04-20T16:02:45.807Z,43.03
2023-04-20T16:05:14.430Z,42.51
2023-04-20T16:07:44.822Z,41.43
2023-04-20T16:10:21.240Z,41.98
2023-04-20T16:12:51.638Z,41.94
2023-04-20T16:15:20.684Z,42.42
2023-04-20T16:17:49.305Z,41.94
2023-04-20T16:20:18.967Z,42.47
2023-04-20T16:22:49.394Z,44.44
2023-04-20T16:25:24.296Z,43.20
2023-04-20T16:27:56.740Z,43.32
2023-04-20T16:30:26.134Z,43.53
2023-04-20T16:33:06.335Z,43.76
2023-04-20T16:35:39.071Z,42.96
2023-04-20T16:38:10.516Z,43.18
2023-04-20T16:40:40.318Z,43.67
2023-04-20T16:43:14.125Z,43.55
2023-04-20T16:45:44.744Z,44.37
2023-04-20T16:48:13.112Z,44.52
2023-04-20T16:50:42.966Z,44.36
2023-04-20T16:53:16.669Z,44.74
2023-04-20T16:55:46.126Z,45.18
2023-04-20T16:58:16.493Z,44.94
2023-04-20T17:00:45.072Z,44.69
2023-04-20T17:03:16.632Z,45.56
2023-04-20T17:05:46.730Z,45.53
2023-04-20T17:08:15.132Z,46.26
2023-04-20T17:10:43.689Z,47.65
2023-04-20T17:13:18.756Z,48.17
2023-04-20T17:15:49.761Z,49.25
2023-04-20T17:18:20.106Z,50.67
2023-04-20T17:20:52.761Z,57.35
2023-04-20T17:23:24.645Z,59.29
2023-04-20T17:25:54.360Z,61.23
2023-04-20T17:28:28.568Z,63.39
2023-04-20T17:30:58.233Z,59.52
2023-04-20T17:33:28.037Z,61.65
2023-04-20T17:36:04.012Z,61.59
2023-04-20T17:38:36.762Z,60.03
2023-04-20T17:41:07.360Z,62.77
2023-04-20T17:43:40.536Z,67.55
2023-04-20T17:46:10.409Z,65.20
2023-04-20T17:48:39.538Z,65.83
2023-04-20T17:51:08.995Z,65.55
2023-04-20T17:53:41.006Z,66.64
2023-04-20T17:56:12.291Z,71.13
2023-04-20T17:58:46.285Z,68.24
2023-04-20T18:02:09.537Z,72.84
2023-04-20T18:04:39.491Z,73.25
2023-04-20T18:07:18.957Z,72.20
2023-04-20T18:09:49.053Z,66.17
2023-04-20T18:12:21.989Z,70.57
2023-04-20T18:15:42.571Z,72.26
2023-04-20T18:18:21.715Z,71.83
2023-04-20T18:21:19.182Z,68.30
2023-04-20T18:23:52.382Z,65.82
2023-04-20T18:26:22.645Z,66.46
2023-04-20T18:28:54.717Z,64.95
2023-04-20T18:31:24.842Z,61.94
2023-04-20T18:34:00.667Z,60.72
2023-04-20T18:36:34.142Z,61.92
2023-04-20T18:39:08.332Z,63.57
2023-04-20T18:41:49.919Z,63.04
2023-04-20T18:45:10.198Z,61.22
2023-04-20T18:47:41.553Z,63.27
2023-04-20T18:50:14.097Z,62.69
2023-04-20T18:52:44.361Z,60.90
2023-04-20T18:55:18.429Z,62.24
2023-04-20T18:58:14.497Z,62.56
2023-04-20T19:00:45.584Z,62.51
2023-04-20T19:03:18.795Z,61.66
2023-04-20T19:06:15.391Z,62.53
2023-04-20T19:08:48.207Z,61.68
2023-04-20T19:11:19.943Z,60.27
2023-04-20T19:13:55.891Z,60.89
2023-04-20T19:16:29.193Z,62.13
2023-04-20T19:18:58.349Z,62.56
2023-04-20T19:21:33.425Z,61.99
2023-04-20T19:24:06.498Z,62.60
2023-04-20T19:27:26.623Z,62.08
2023-04-20T19:30:00.084Z,65.26
2023-04-20T19:32:37.052Z,64.85
2023-04-20T19:35:08.033Z,66.59
2023-04-20T19:37:48.710Z,64.31
2023-04-20T19:40:22.677Z,64.28
2023-04-20T19:42:53.750Z,63.06
2023-04-20T19:45:24.238Z,62.30
2023-04-20T19:47:59.638Z,62.24
2023-04-20T19:50:33.221Z,61.14
2023-04-20T19:53:05.051Z,60.23
2023-04-20T19:55:38.357Z,61.61
2023-04-20T19:58:14.245Z,61.29
2023-04-20T20:00:45.506Z,61.98
2023-04-20T20:03:30.630Z,62.46
2023-04-20T20:06:11.982Z,62.16
2023-04-20T20:08:47.549Z,62.14
2023-04-20T20:11:17.709Z,62.25
2023-04-20T20:13:50.024Z,61.52
2023-04-20T20:16:21.697Z,64.39
2023-04-20T20:18:51.175Z,65.18
2023-04-20T20:21:27.994Z,66.98
2023-04-20T20:23:58.710Z,67.26
2023-04-20T20:26:29.442Z,63.27
2023-04-20T20:28:57.977Z,62.29
2023-04-20T20:31:30.901Z,62.68
2023-04-20T20:33:59.204Z,63.26
2023-04-20T20:36:32.175Z,62.52
2023-04-20T20:39:05.202Z,62.71
2023-04-20T20:41:35.818Z,62.22
2023-04-20T20:44:06.748Z,61.97
2023-04-20T20:46:44.813Z,63.30
2023-04-20T20:49:14.176Z,62.28
2023-04-20T20:51:44.739Z,62.66
2023-04-20T20:54:15.932Z,62.74
2023-04-20T20:56:47.428Z,62.63
2023-04-20T20:59:21.029Z,63.18
2023-04-20T21:01:50.760Z,63.84
2023-04-20T21:04:19.280Z,62.99
2023-04-20T21:06:47.753Z,63.36
2023-04-20T21:09:18.847Z,63.08
2023-04-20T21:11:47.330Z,63.05
2023-04-20T21:14:17.178Z,62.84
2023-04-20T21:16:47.292Z,62.72
2023-04-20T21:19:15.701Z,63.57
2023-04-20T21:21:45.214Z,63.40
2023-04-20T21:24:13.553Z,62.24
2023-04-20T21:26:43.471Z,61.98
2023-04-20T21:29:14.789Z,62.12
2023-04-20T21:31:43.295Z,62.25
2023-04-20T21:34:12.582Z,62.68
2023-04-20T21:36:43.349Z,62.38
2023-04-20T21:39:23.557Z,62.33
2023-04-20T21:41:58.002Z,62.55
2023-04-20T21:44:27.950Z,62.59
2023-04-20T21:46:58.762Z,62.87
2023-04-20T21:49:28.141Z,62.37
2023-04-20T21:55:23.282Z,62.44
2023-04-20T21:57:52.991Z,62.12
2023-04-20T22:00:22.825Z,62.84
2023-04-20T22:02:51.281Z,62.17
2023-04-20T22:05:21.992Z,62.68
2023-04-20T22:07:50.309Z,62.37
2023-04-20T22:10:18.615Z,61.99
2023-04-20T22:12:46.961Z,61.83
2023-04-20T22:15:17.348Z,61.59
2023-04-20T22:17:46.631Z,61.31
2023-04-20T22:20:19.272Z,61.03
2023-04-20T22:22:47.872Z,60.76
2023-04-20T22:25:16.368Z,60.16
2023-04-20T22:27:44.836Z,61.48
2023-04-20T22:30:13.755Z,62.68
2023-04-20T22:32:43.603Z,65.94
2023-04-20T22:35:16.149Z,64.21
2023-04-20T22:37:45.873Z,62.92
2023-04-20T22:40:16.340Z,64.97
2023-04-20T22:42:44.601Z,64.32
2023-04-20T22:45:13.107Z,68.69
2023-04-20T22:47:41.603Z,66.29
2023-04-20T22:50:12.570Z,67.97
2023-04-20T22:52:40.950Z,66.87
2023-04-20T22:55:10.811Z,66.38
2023-04-20T22:57:39.816Z,64.98
2023-04-20T23:00:10.903Z,65.04
2023-04-20T23:02:41.677Z,64.59
2023-04-20T23:05:12.031Z,63.99
2023-04-20T23:07:45.358Z,63.09
2023-04-20T23:10:16.245Z,62.92
2023-04-20T23:12:47.004Z,62.42
2023-04-20T23:15:15.323Z,62.19
2023-04-20T23:17:44.603Z,61.62
2023-04-20T23:20:15.617Z,61.57
2023-04-20T23:22:44.177Z,60.94
2023-04-20T23:25:13.366Z,60.88
2023-04-20T23:27:41.700Z,60.93
2023-04-20T23:30:12.045Z,60.70
2023-04-20T23:32:44.316Z,60.38
2023-04-20T23:35:16.458Z,60.24
2023-04-20T23:37:46.699Z,60.22
2023-04-20T23:40:15.130Z,60.04
2023-04-20T23:42:43.541Z,60.43
2023-04-20T23:45:13.410Z,60.39
2023-04-20T23:47:43.155Z,60.21
2023-04-20T23:50:11.848Z,60.30
2023-04-20T23:52:42.026Z,60.31
2023-04-20T23:55:11.749Z,60.22
2023-04-20T23:57:41.041Z,60.23
